logo
Rechercher aéroport 
image banner adimage banner adimage banner ad
image banner ad

KSNA - John Wayne Airport-Orange County

Situé à Santa Ana, United States

ICAO - SNA, IATA - SNA

Données fournies par Airmate  

Information générale

Coordonnées: N33°40'32" W117°52'6"
Élévation : 55 feet MSL.
Variation magnétique : 12° East
Voir autres Aéroports à California

Données opérationnelles

Special qualification required
Heure actuelle UTC:
Heure actuelle locale:
Météo
METAR: KSNA 281153Z AUTO 00000KT 10SM CLR 22/17 A2988 RMK AO2 SLP116 T02170167 10228 20217 55001
TAF: KSNA 272337Z 2800/2824 21008KT P6SM SKC FM280600 VRB04KT P6SM SKC TEMPO 2812/2816 3SM BR BKN005 FM281900 22008KT P6SM SCT250
Voir NOTAMs / SUP AIP / TFR affectant cet aéroport [VIEW]
Fréquences de communication: [VIEW]

Pistes:

Identifiant RWYQFULongueur (ft)Largeur (ft)SurfaceLDA (ft)
02L28°5700150ASPH5701
02R28°288675ASPH2887
20L208°288675ASPH2887
20R208°5700150ASPH5701

Coordonnées de l'aéroport

Adresse: Santa Ana United States

Autres services d'aviation

Écoles de pilotage

Sunrise Aviation

Sunrise Aviation

Royal Aviation

Royal Aviation
info@royalaviation.net+1(714)557-7174

Helistream, Inc.

Helistream, Inc.
info@helistream.com+1(714)662-3163

Accelerated Flight & Instrument Training, Llc

Accelerated Flight & Instrument Training, Llc
training@afit-info.com+1(866)270-8224

Orange County Flight Center

Orange County Flight Center

Trc Aviation Academy

Trc Aviation Academy

Vue satellite de KSNA